createdAt,value
2022-10-06T00:01:06.315Z,9.82
2022-10-06T00:04:08.233Z,9.85
2022-10-06T00:07:10.044Z,9.84
2022-10-06T00:10:58.623Z,9.89
2022-10-06T00:14:00.830Z,9.90
2022-10-06T00:17:02.818Z,9.91
2022-10-06T00:20:05.453Z,9.92
2022-10-06T00:23:07.437Z,9.91
2022-10-06T00:26:16.887Z,9.93
2022-10-06T00:29:19.154Z,9.93
2022-10-06T00:32:21.100Z,9.91
2022-10-06T00:35:26.231Z,9.91
2022-10-06T00:38:29.354Z,9.92
2022-10-06T00:41:31.529Z,9.93
2022-10-06T00:44:33.316Z,9.94
2022-10-06T00:47:35.198Z,9.96
2022-10-06T00:50:37.962Z,9.98
2022-10-06T00:53:40.499Z,9.98
2022-10-06T00:56:42.754Z,9.99
2022-10-06T00:59:44.688Z,9.99
2022-10-06T01:02:57.148Z,10.01
2022-10-06T01:06:00.095Z,10.02
2022-10-06T01:09:01.819Z,10.03
2022-10-06T01:12:07.294Z,10.05
2022-10-06T01:15:09.690Z,10.07
2022-10-06T01:18:15.092Z,10.07
2022-10-06T01:21:34.538Z,10.09
2022-10-06T01:24:36.984Z,10.09
2022-10-06T01:27:42.279Z,10.12
2022-10-06T01:30:53.331Z,10.12
2022-10-06T01:33:57.907Z,10.10
2022-10-06T01:36:59.758Z,10.12
2022-10-06T01:40:02.693Z,10.09
2022-10-06T01:43:04.621Z,10.09
2022-10-06T01:46:06.545Z,10.07
2022-10-06T01:49:08.376Z,10.05
2022-10-06T01:52:10.252Z,10.03
2022-10-06T01:55:11.995Z,10.02
2022-10-06T01:58:14.448Z,10.03
2022-10-06T02:01:16.382Z,10.04
2022-10-06T02:04:18.628Z,10.03
2022-10-06T02:07:20.509Z,10.03
2022-10-06T02:10:22.567Z,10.06
2022-10-06T02:13:26.647Z,10.05
2022-10-06T02:16:30.168Z,10.06
2022-10-06T02:19:32.141Z,10.06
2022-10-06T02:22:38.674Z,10.07
2022-10-06T02:25:40.528Z,10.09
2022-10-06T02:28:44.038Z,10.06
2022-10-06T02:31:49.604Z,10.05
2022-10-06T02:34:52.506Z,10.08
2022-10-06T02:37:54.435Z,10.09
2022-10-06T02:40:57.628Z,10.09
2022-10-06T02:43:59.861Z,10.09
2022-10-06T02:47:01.732Z,10.09
2022-10-06T02:50:07.007Z,10.06
2022-10-06T02:53:09.550Z,10.04
2022-10-06T02:56:17.560Z,10.03
2022-10-06T02:59:19.448Z,10.01
2022-10-06T03:02:21.839Z,9.99
2022-10-06T03:05:23.810Z,9.96
2022-10-06T03:08:25.978Z,9.95
2022-10-06T03:11:32.800Z,9.95
2022-10-06T03:14:34.820Z,9.93
2022-10-06T03:17:36.665Z,9.93
2022-10-06T03:20:40.193Z,9.93
2022-10-06T03:23:47.721Z,9.94
2022-10-06T03:26:49.589Z,9.94
2022-10-06T03:29:53.533Z,9.96
2022-10-06T03:33:01.820Z,9.97
2022-10-06T03:36:07.104Z,9.98
2022-10-06T03:39:10.095Z,9.99
2022-10-06T03:42:12.877Z,9.99
2022-10-06T03:45:14.761Z,9.98
2022-10-06T03:48:16.600Z,10.00
2022-10-06T03:51:24.088Z,10.01
2022-10-06T03:54:26.112Z,10.03
2022-10-06T03:57:28.258Z,10.03
2022-10-06T04:00:30.356Z,10.05
2022-10-06T04:03:33.487Z,10.08
2022-10-06T04:06:36.410Z,10.09
2022-10-06T04:09:39.440Z,10.13
2022-10-06T04:12:41.605Z,10.15
2022-10-06T04:15:44.047Z,10.19
2022-10-06T04:18:49.629Z,10.20
2022-10-06T04:21:51.702Z,10.20
2022-10-06T04:24:56.722Z,10.21
2022-10-06T04:27:59.442Z,10.22
2022-10-06T04:31:01.812Z,10.19
2022-10-06T04:34:05.578Z,10.20
2022-10-06T04:37:08.066Z,10.21
2022-10-06T04:40:10.612Z,10.28
2022-10-06T04:43:13.534Z,10.32
2022-10-06T04:46:41.501Z,10.42
2022-10-06T04:49:40.944Z,10.50
2022-10-06T04:52:43.406Z,10.57
2022-10-06T04:55:45.315Z,10.63
2022-10-06T04:58:49.671Z,10.71
2022-10-06T05:01:51.832Z,10.77
2022-10-06T05:04:53.766Z,10.83
2022-10-06T05:07:59.467Z,10.87
2022-10-06T05:11:04.415Z,10.97
2022-10-06T05:14:06.732Z,11.04
2022-10-06T05:17:11.560Z,11.15
2022-10-06T05:20:14.099Z,11.23
2022-10-06T05:23:16.493Z,11.34
2022-10-06T05:26:24.051Z,11.45
2022-10-06T05:29:25.918Z,11.56
2022-10-06T05:32:28.529Z,11.74
2022-10-06T05:35:32.287Z,11.90
2022-10-06T05:38:34.694Z,12.08
2022-10-06T05:41:37.887Z,12.21
2022-10-06T05:44:42.266Z,12.30
2022-10-06T05:47:46.361Z,12.38
2022-10-06T05:50:58.594Z,12.51
2022-10-06T05:54:01.343Z,12.77
2022-10-06T05:57:03.982Z,13.04
2022-10-06T06:00:08.574Z,13.31
2022-10-06T06:03:14.815Z,13.58
2022-10-06T06:06:18.294Z,13.81
2022-10-06T06:09:21.657Z,14.06
2022-10-06T06:12:25.971Z,14.24
2022-10-06T06:16:00.246Z,14.23
2022-10-06T06:19:02.652Z,14.51
2022-10-06T06:22:04.504Z,14.58
2022-10-06T06:25:08.919Z,14.50
2022-10-06T06:28:10.930Z,14.44
2022-10-06T06:31:19.721Z,14.43
2022-10-06T06:34:23.519Z,14.61
2022-10-06T06:37:25.552Z,14.88
2022-10-06T06:40:27.635Z,15.26
2022-10-06T06:43:30.144Z,15.65
2022-10-06T06:46:57.470Z,15.83
2022-10-06T06:50:00.300Z,16.01
2022-10-06T06:53:04.277Z,16.11
2022-10-06T06:56:09.762Z,16.29
2022-10-06T06:59:13.245Z,16.50
2022-10-06T07:02:19.475Z,16.77
2022-10-06T07:05:24.403Z,16.79
2022-10-06T07:08:26.784Z,16.77
2022-10-06T07:11:34.969Z,16.94
2022-10-06T07:14:59.951Z,17.15
2022-10-06T07:18:22.902Z,17.46
2022-10-06T07:21:43.426Z,17.72
2022-10-06T07:25:04.968Z,17.85
2022-10-06T07:28:07.810Z,18.12
2022-10-06T07:31:13.093Z,18.16
2022-10-06T07:34:15.370Z,18.20
2022-10-06T07:37:18.485Z,18.27
2022-10-06T07:40:20.317Z,18.41
2022-10-06T07:43:22.703Z,18.67
2022-10-06T07:46:26.705Z,18.85
2022-10-06T07:49:33.609Z,19.04
2022-10-06T07:52:39.275Z,19.08
2022-10-06T07:55:45.380Z,19.27
2022-10-06T07:58:56.053Z,19.44
2022-10-06T08:01:57.914Z,19.51
2022-10-06T08:04:59.722Z,19.60
2022-10-06T08:08:01.677Z,19.64
2022-10-06T08:11:04.995Z,19.81
2022-10-06T08:14:06.945Z,19.94
2022-10-06T08:17:08.690Z,20.15
2022-10-06T08:20:12.351Z,20.25
2022-10-06T08:23:14.529Z,20.37
2022-10-06T08:26:18.671Z,20.50
2022-10-06T08:29:22.278Z,20.64
2022-10-06T08:32:24.597Z,20.82
2022-10-06T08:35:26.394Z,20.86
2022-10-06T08:38:28.206Z,20.75
2022-10-06T08:41:53.350Z,20.72
2022-10-06T08:45:07.543Z,20.63
2022-10-06T08:48:26.901Z,20.78
2022-10-06T08:51:50.294Z,20.85
2022-10-06T08:55:24.926Z,20.56
2022-10-06T08:58:47.018Z,20.61
2022-10-06T09:01:51.502Z,20.72
2022-10-06T09:04:53.517Z,21.01
2022-10-06T09:08:40.766Z,20.98
2022-10-06T09:11:49.838Z,20.99
2022-10-06T09:14:53.790Z,20.85
2022-10-06T09:18:10.712Z,20.93
2022-10-06T09:21:15.765Z,20.91
2022-10-06T09:24:46.223Z,21.01
2022-10-06T09:27:53.931Z,21.03
2022-10-06T09:30:56.388Z,20.89
2022-10-06T09:34:04.991Z,20.81
2022-10-06T09:37:11.525Z,20.81
2022-10-06T09:40:35.566Z,20.80
2022-10-06T09:43:41.832Z,20.98
2022-10-06T09:46:44.218Z,21.12
2022-10-06T09:50:02.770Z,20.97
2022-10-06T09:53:10.327Z,20.87
2022-10-06T09:56:19.514Z,20.93
2022-10-06T09:59:49.698Z,21.08
2022-10-06T10:02:58.011Z,21.05
2022-10-06T10:06:02.299Z,20.81
2022-10-06T10:09:21.908Z,20.51
2022-10-06T10:12:29.940Z,20.41
2022-10-06T10:15:52.381Z,20.40
2022-10-06T10:18:55.135Z,20.26
2022-10-06T10:21:57.325Z,20.30
2022-10-06T10:25:24.762Z,20.38
2022-10-06T10:28:48.158Z,20.21
2022-10-06T10:32:21.754Z,20.32
2022-10-06T10:35:27.691Z,20.14
2022-10-06T10:38:31.573Z,20.19
2022-10-06T10:41:45.056Z,20.24
2022-10-06T10:44:57.248Z,20.11
2022-10-06T10:47:59.698Z,19.94
2022-10-06T10:51:10.087Z,19.96
2022-10-06T10:54:25.150Z,19.99
2022-10-06T10:57:35.399Z,19.98
2022-10-06T11:00:43.195Z,19.87
2022-10-06T11:03:56.760Z,19.76
2022-10-06T11:07:02.295Z,19.72
2022-10-06T11:10:07.079Z,19.72
2022-10-06T11:13:28.308Z,19.72
2022-10-06T11:16:37.223Z,19.76
2022-10-06T11:19:52.278Z,19.77
2022-10-06T11:23:24.089Z,19.57
2022-10-06T11:27:08.300Z,19.66
2022-10-06T11:30:16.288Z,19.69
2022-10-06T11:33:26.717Z,19.58
2022-10-06T11:36:58.591Z,19.70
2022-10-06T11:40:03.870Z,19.64
2022-10-06T11:43:20.196Z,19.81
2022-10-06T11:46:31.251Z,19.87
2022-10-06T11:49:52.156Z,19.84
2022-10-06T11:52:54.219Z,19.84
2022-10-06T11:56:18.003Z,19.91
2022-10-06T11:59:28.721Z,19.84
2022-10-06T12:02:30.704Z,19.81
2022-10-06T12:18:06.764Z,19.72
2022-10-06T12:21:17.673Z,19.75
2022-10-06T12:24:22.449Z,19.77
2022-10-06T12:27:43.083Z,19.71
2022-10-06T12:31:18.111Z,19.64
2022-10-06T12:34:47.924Z,19.51
2022-10-06T12:37:54.408Z,19.43
2022-10-06T12:40:57.045Z,19.41
2022-10-06T12:44:00.709Z,19.35
2022-10-06T12:47:10.014Z,19.32
2022-10-06T12:50:22.129Z,19.24
2022-10-06T12:53:33.034Z,19.22
2022-10-06T12:56:38.520Z,19.18
2022-10-06T12:59:40.986Z,19.14
2022-10-06T13:02:44.014Z,19.07
2022-10-06T13:05:51.885Z,19.02
2022-10-06T13:09:14.644Z,19.04
2022-10-06T13:12:19.393Z,18.92
2022-10-06T13:15:34.508Z,18.97
2022-10-06T13:18:36.849Z,18.96
2022-10-06T13:21:38.650Z,18.92
2022-10-06T13:24:40.661Z,18.80
2022-10-06T13:27:50.535Z,18.91
2022-10-06T13:30:55.126Z,18.83
2022-10-06T13:34:04.844Z,18.75
2022-10-06T13:37:09.720Z,18.80
2022-10-06T13:40:21.896Z,18.70
2022-10-06T13:43:30.201Z,18.72
2022-10-06T13:46:40.137Z,18.63
2022-10-06T13:50:03.156Z,18.64
2022-10-06T13:53:05.264Z,18.51
2022-10-06T13:56:35.195Z,18.64
2022-10-06T13:59:38.758Z,18.61
2022-10-06T14:02:42.275Z,18.56
2022-10-06T14:05:46.165Z,18.47
2022-10-06T14:08:54.911Z,18.48
2022-10-06T14:12:18.120Z,18.42
2022-10-06T14:15:22.921Z,18.40
2022-10-06T14:18:46.795Z,18.38
2022-10-06T14:21:48.690Z,18.33
2022-10-06T14:24:51.394Z,18.28
2022-10-06T14:27:53.242Z,18.22
2022-10-06T14:30:57.627Z,18.16
2022-10-06T14:34:00.722Z,18.07
2022-10-06T14:37:03.645Z,17.94
2022-10-06T14:40:10.127Z,17.82
2022-10-06T14:43:14.606Z,17.74
2022-10-06T14:46:16.550Z,17.61
2022-10-06T14:49:18.690Z,17.49
2022-10-06T14:52:23.057Z,17.39
2022-10-06T14:55:29.775Z,17.27
2022-10-06T14:58:33.045Z,17.18
2022-10-06T15:01:37.388Z,17.08
2022-10-06T15:04:39.239Z,16.98
2022-10-06T15:08:00.191Z,16.83
2022-10-06T15:11:01.921Z,16.69
2022-10-06T15:14:04.688Z,16.55
2022-10-06T15:17:06.718Z,16.40
2022-10-06T15:20:09.183Z,16.27
2022-10-06T15:23:11.100Z,16.17
2022-10-06T15:26:31.408Z,16.11
2022-10-06T15:29:34.846Z,16.02
2022-10-06T15:32:37.455Z,15.95
2022-10-06T15:35:39.150Z,15.83
2022-10-06T15:38:40.929Z,15.73
2022-10-06T15:41:43.189Z,15.62
2022-10-06T15:44:44.944Z,15.60
2022-10-06T15:47:47.092Z,15.54
2022-10-06T15:50:48.912Z,15.47
2022-10-06T15:53:50.799Z,15.42
2022-10-06T15:56:54.902Z,15.32
2022-10-06T15:59:56.703Z,15.27
2022-10-06T16:02:58.760Z,15.18
2022-10-06T16:06:03.221Z,15.09
2022-10-06T16:09:05.008Z,15.01
2022-10-06T16:12:08.655Z,14.90
2022-10-06T16:15:10.823Z,14.83
2022-10-06T16:18:12.538Z,14.74
2022-10-06T16:21:14.323Z,14.66
2022-10-06T16:24:20.327Z,14.60
2022-10-06T16:27:22.190Z,14.53
2022-10-06T16:30:24.158Z,14.45
2022-10-06T16:33:26.021Z,14.40
2022-10-06T16:36:27.799Z,14.35
2022-10-06T16:39:29.660Z,14.27
2022-10-06T16:42:31.379Z,14.21
2022-10-06T16:45:33.740Z,14.15
2022-10-06T16:48:41.217Z,14.09
2022-10-06T16:51:45.784Z,14.03
2022-10-06T16:54:47.648Z,13.99
2022-10-06T16:57:49.467Z,13.93
2022-10-06T17:00:58.543Z,13.85
2022-10-06T17:04:09.283Z,13.79
2022-10-06T17:07:11.573Z,13.73
2022-10-06T17:10:20.501Z,13.66
2022-10-06T17:13:22.834Z,13.60
2022-10-06T17:16:28.848Z,13.55
2022-10-06T17:19:30.984Z,13.50
2022-10-06T17:22:32.790Z,13.45
2022-10-06T17:25:34.590Z,13.39
2022-10-06T17:28:38.454Z,13.32
2022-10-06T17:31:42.513Z,13.26
2022-10-06T17:34:45.350Z,13.20
2022-10-06T17:37:47.042Z,13.11
2022-10-06T17:40:48.832Z,13.09
2022-10-06T17:43:50.906Z,13.06
2022-10-06T17:46:56.283Z,13.03
2022-10-06T17:49:58.070Z,12.97
2022-10-06T17:52:59.865Z,12.91
2022-10-06T17:56:10.217Z,12.91
2022-10-06T17:59:17.634Z,12.88
2022-10-06T18:02:19.581Z,12.86
2022-10-06T18:05:21.495Z,12.85
2022-10-06T18:08:23.608Z,12.83
2022-10-06T18:11:48.039Z,12.79
2022-10-06T18:14:50.488Z,12.74
2022-10-06T18:17:53.473Z,12.67
2022-10-06T18:21:02.511Z,12.63
2022-10-06T18:24:16.529Z,12.57
2022-10-06T18:27:18.316Z,12.53
2022-10-06T18:30:20.138Z,12.47
2022-10-06T18:36:44.289Z,12.40
2022-10-06T18:39:46.777Z,12.35
2022-10-06T18:42:48.921Z,12.28
2022-10-06T18:46:09.623Z,12.27
2022-10-06T18:49:18.530Z,12.22
2022-10-06T18:52:21.777Z,12.21
2022-10-06T18:55:23.637Z,12.21
2022-10-06T18:58:25.473Z,12.18
2022-10-06T19:01:29.188Z,12.14
2022-10-06T19:04:35.154Z,12.13
2022-10-06T19:07:37.065Z,12.13
2022-10-06T19:10:58.845Z,12.11
2022-10-06T19:14:00.640Z,12.05
2022-10-06T19:17:14.823Z,12.03
2022-10-06T19:20:18.559Z,11.98
2022-10-06T19:23:20.620Z,11.93
2022-10-06T19:26:22.687Z,11.90
2022-10-06T19:29:27.023Z,11.83
2022-10-06T19:32:33.334Z,11.80
2022-10-06T19:35:35.148Z,11.75
2022-10-06T19:38:38.596Z,11.69
2022-10-06T19:41:59.671Z,11.66
2022-10-06T19:45:01.741Z,11.61
2022-10-06T19:48:04.421Z,11.61
2022-10-06T19:51:16.505Z,11.55
2022-10-06T19:54:19.382Z,11.52
2022-10-06T19:57:21.166Z,11.49
2022-10-06T20:00:23.120Z,11.46
2022-10-06T20:03:24.883Z,11.44
2022-10-06T20:06:26.728Z,11.43
2022-10-06T20:09:33.690Z,11.39
2022-10-06T20:12:35.869Z,11.35
2022-10-06T20:15:37.702Z,11.34
2022-10-06T20:18:41.832Z,11.31
2022-10-06T20:21:44.212Z,11.27
2022-10-06T20:24:47.773Z,11.23
2022-10-06T20:27:50.316Z,11.22
2022-10-06T20:30:52.122Z,11.18
2022-10-06T20:33:59.579Z,11.11
2022-10-06T20:37:03.796Z,11.07
2022-10-06T20:40:44.671Z,11.01
2022-10-06T20:43:46.522Z,10.95
2022-10-06T20:46:48.361Z,10.90
2022-10-06T20:49:55.302Z,10.86
2022-10-06T20:52:58.498Z,10.84
2022-10-06T20:56:00.333Z,10.83
2022-10-06T20:59:03.508Z,10.81
2022-10-06T21:02:06.057Z,10.80
2022-10-06T21:05:09.068Z,10.76
2022-10-06T21:08:11.115Z,10.74
2022-10-06T21:11:17.324Z,10.72
2022-10-06T21:14:19.183Z,10.69
2022-10-06T21:17:20.961Z,10.68
2022-10-06T21:20:22.726Z,10.66
2022-10-06T21:23:24.589Z,10.65
2022-10-06T21:26:27.954Z,10.65
2022-10-06T21:29:29.812Z,10.63
2022-10-06T21:32:32.690Z,10.61
2022-10-06T21:35:34.514Z,10.61
2022-10-06T21:38:39.947Z,10.60
2022-10-06T21:41:41.974Z,10.58
2022-10-06T21:44:43.835Z,10.56
2022-10-06T21:47:46.119Z,10.54
2022-10-06T21:50:54.483Z,10.51
2022-10-06T21:53:57.705Z,10.50
2022-10-06T21:56:59.590Z,10.48
2022-10-06T22:00:01.537Z,10.47
2022-10-06T22:03:03.742Z,10.47
2022-10-06T22:06:07.305Z,10.47
2022-10-06T22:09:14.244Z,10.44
2022-10-06T22:12:16.025Z,10.40
2022-10-06T22:15:17.971Z,10.40
2022-10-06T22:18:19.743Z,10.39
2022-10-06T22:21:22.918Z,10.42
2022-10-06T22:24:24.755Z,10.45
2022-10-06T22:27:26.591Z,10.50
2022-10-06T22:30:28.439Z,10.52
2022-10-06T22:33:30.656Z,10.57
2022-10-06T22:36:33.740Z,10.62
2022-10-06T22:39:35.567Z,10.61
2022-10-06T22:42:37.358Z,10.62
2022-10-06T22:45:39.523Z,10.61
2022-10-06T22:48:41.873Z,10.58
2022-10-06T22:51:45.018Z,10.54
2022-10-06T22:54:46.891Z,10.53
2022-10-06T22:57:48.794Z,10.49
2022-10-06T23:00:50.739Z,10.45
2022-10-06T23:03:55.022Z,10.45
2022-10-06T23:06:56.902Z,10.42
2022-10-06T23:09:58.719Z,10.37
2022-10-06T23:13:01.231Z,10.34
2022-10-06T23:16:09.128Z,10.31
2022-10-06T23:19:11.090Z,10.29
2022-10-06T23:22:12.856Z,10.25
2022-10-06T23:25:14.682Z,10.22
2022-10-06T23:28:16.546Z,10.19
2022-10-06T23:31:18.446Z,10.17
2022-10-06T23:34:20.290Z,10.16
2022-10-06T23:37:22.112Z,10.15
2022-10-06T23:40:23.935Z,10.15
2022-10-06T23:43:25.779Z,10.18
2022-10-06T23:46:27.590Z,10.19
2022-10-06T23:49:29.337Z,10.17
2022-10-06T23:52:31.127Z,10.14
2022-10-06T23:55:33.038Z,10.14
2022-10-06T23:58:34.959Z,10.12
